Northam Composite, Western Australia

3:30 AM AWST on July 05, 2015 (GMT +0800)
Koojedda | | Change Station
CLOSE
Current Station
Personal Weather Station
Location: Bakers Hill, WESTERN AUSTRALIA
Elevation: 1047 ft
Nearby Weather Stations

Elev 1047 ft 31.74 °S, 116.44 °E | Updated 29 seconds ago

Mostly Cloudy
Mostly Cloudy
50.5 °F
Feels Like 50.5 °F
N
0.0
Wind Variable Wind from North
Gusts 0.0 mph

Today
High -- | Low -- °F
--% Chance of Precip.
Yesterday
High -- | Low -- °F
Precip. -- in
7:13 AM 5:22 PM
Waning Gibbous, 90% visible
Pressure 30.15 in
Visibility 0.4 miles
Clouds Mostly Cloudy 3200 ft
Dew Point 49 °F
Humidity 95%
Rainfall 0.00 in
Snow Depth Not available.
UV 0.0 out of 12
Pollen Not available.
Air Quality Not available.
Flu Activity Not available.
SPECI YPEA 041929Z AUTO 27003KT 0700 // BKN032 12/12 Q1021

More Conditions Fewer Conditions

Pressure 30.15 in
Visibility 0.4 miles
Clouds Mostly Cloudy 3200 ft
Dew Point 49 °F
Humidity 95%
Rainfall 0.00 in
Snow Depth Not available.
UV 0.0 out of 12
Pollen Not available.
Air Quality Not available.
Flu Activity Not available.
SPECI YPEA 041929Z AUTO 27003KT 0700 // BKN032 12/12 Q1021

More Conditions Fewer Conditions

10-Day Weather Forecast

×

Almanac

Astronomy

Jul. 05, 2015 Rise Set
Actual Time
Civil Twilight
Nautical Twilight
Astronomical Twilight
Moon
Length of Visible Light
Length of Day
Tomorrow will be .
, % of the Moon is Illuminated

Today's Extremes

Country Highs Country Lows

Community

WunderPhotos

Upload Photos

1,835,065 photos uploaded!

WunderBlogs® & News

Nearby

Air Quality

  Air Quality AQ Index Pollutant
Not available.

Snow Depth

Station Depth Elevation

Earthquake Activity

City Distance Mag. Time & Date
Minimum magnitude displayed is 2.5.

Coastal Water Temperatures

Place Temperature

Stations

Nearby Weather Stations

Station Location Temp. Windchill Dew Point Humidity Wind Precip. Elev Updated Type